createdAt,value
2023-04-18T00:01:25.057Z,6.60
2023-04-18T00:03:53.342Z,4.30
2023-04-18T00:06:22.291Z,4.30
2023-04-18T00:08:50.029Z,4.30
2023-04-18T00:11:17.679Z,5.90
2023-04-18T00:13:47.586Z,5.70
2023-04-18T00:16:15.600Z,6.40
2023-04-18T00:18:43.377Z,5.50
2023-04-18T00:21:11.151Z,7.10
2023-04-18T00:23:39.865Z,5.40
2023-04-18T00:26:07.461Z,6.40
2023-04-18T00:28:35.131Z,5.90
2023-04-18T00:31:02.890Z,3.40
2023-04-18T00:33:30.653Z,7.10
2023-04-18T00:35:58.257Z,5.80
2023-04-18T00:38:25.850Z,3.90
2023-04-18T00:40:53.444Z,4.20
2023-04-18T00:43:23.426Z,6.40
2023-04-18T00:45:51.047Z,5.10
2023-04-18T00:48:18.675Z,4.80
2023-04-18T00:50:46.332Z,5.40
2023-04-18T00:53:13.915Z,7.70
2023-04-18T00:55:41.592Z,5.60
2023-04-18T00:58:09.242Z,6.00
2023-04-18T01:00:36.896Z,4.80
2023-04-18T01:03:04.648Z,7.80
2023-04-18T01:05:32.428Z,7.90
2023-04-18T01:08:01.335Z,5.90
2023-04-18T01:10:29.249Z,6.80
2023-04-18T01:13:23.189Z,6.00
2023-04-18T01:15:54.075Z,6.80
2023-04-18T01:18:22.578Z,6.10
2023-04-18T01:20:51.107Z,5.70
2023-04-18T01:23:19.219Z,7.00
2023-04-18T01:25:47.284Z,7.90
2023-04-18T01:28:15.069Z,4.00
2023-04-18T01:30:42.706Z,6.00
2023-04-18T01:33:10.320Z,6.00
2023-04-18T01:35:38.108Z,7.50
2023-04-18T01:38:05.776Z,6.80
2023-04-18T01:40:33.404Z,6.90
2023-04-18T01:43:01.297Z,5.00
2023-04-18T01:45:28.893Z,8.30
2023-04-18T01:47:56.634Z,5.40
2023-04-18T01:50:24.442Z,5.10
2023-04-18T01:52:52.030Z,6.60
2023-04-18T01:55:19.698Z,8.80
2023-04-18T01:57:47.352Z,8.00
2023-04-18T02:00:15.854Z,6.40
2023-04-18T02:02:43.625Z,5.30
2023-04-18T02:05:11.394Z,4.90
2023-04-18T02:07:39.755Z,4.80
2023-04-18T02:10:07.913Z,3.40
2023-04-18T02:12:35.529Z,7.00
2023-04-18T02:15:03.564Z,3.90
2023-04-18T02:17:31.342Z,4.10
2023-04-18T02:19:59.007Z,4.50
2023-04-18T02:22:26.583Z,4.10
2023-04-18T02:24:54.176Z,4.90
2023-04-18T02:27:21.812Z,5.50
2023-04-18T02:29:49.420Z,5.60
2023-04-18T02:32:17.070Z,6.10
2023-04-18T02:34:44.719Z,5.40
2023-04-18T02:37:12.323Z,4.20
2023-04-18T02:39:39.890Z,4.20
2023-04-18T02:42:07.493Z,3.70
2023-04-18T02:44:35.129Z,3.60
2023-04-18T02:47:02.742Z,3.60
2023-04-18T02:49:30.385Z,4.30
2023-04-18T02:51:58.051Z,4.30
2023-04-18T02:54:25.779Z,3.90
2023-04-18T02:56:57.006Z,3.90
2023-04-18T02:59:24.693Z,4.00
2023-04-18T03:01:52.416Z,5.10
2023-04-18T03:04:20.240Z,6.80
2023-04-18T03:06:50.041Z,3.70
2023-04-18T03:09:17.896Z,6.50
2023-04-18T03:11:45.533Z,7.70
2023-04-18T03:14:13.241Z,5.30
2023-04-18T03:16:41.082Z,4.00
2023-04-18T03:19:09.246Z,8.20
2023-04-18T03:21:36.850Z,5.40
2023-04-18T03:24:04.953Z,5.10
2023-04-18T03:26:32.507Z,8.40
2023-04-18T03:29:00.106Z,4.80
2023-04-18T03:31:27.772Z,6.30
2023-04-18T03:33:55.404Z,4.10
2023-04-18T03:36:25.447Z,5.00
2023-04-18T03:38:54.698Z,5.90
2023-04-18T03:41:22.300Z,7.40
2023-04-18T03:43:49.909Z,6.40
2023-04-18T03:46:17.558Z,5.20
2023-04-18T03:48:45.285Z,4.90
2023-04-18T03:51:14.202Z,6.70
2023-04-18T03:53:41.955Z,6.10
2023-04-18T03:56:09.589Z,7.10
2023-04-18T03:58:37.194Z,6.50
2023-04-18T04:01:06.594Z,9.20
2023-04-18T04:03:34.302Z,6.70
2023-04-18T04:06:01.995Z,7.40
2023-04-18T04:08:29.642Z,10.80
2023-04-18T04:10:57.257Z,9.60
2023-04-18T04:13:24.898Z,8.60
2023-04-18T04:15:52.549Z,14.30
2023-04-18T04:18:20.401Z,11.30
2023-04-18T04:20:48.025Z,9.30
2023-04-18T04:23:15.620Z,12.50
2023-04-18T04:25:45.538Z,11.60
2023-04-18T04:28:14.044Z,14.20
2023-04-18T04:30:41.751Z,14.00
2023-04-18T04:33:09.345Z,13.90
2023-04-18T04:35:37.057Z,11.70
2023-04-18T04:38:04.661Z,11.90
2023-04-18T04:40:32.365Z,12.10
2023-04-18T04:43:00.489Z,12.80
2023-04-18T04:45:28.145Z,11.30
2023-04-18T04:47:55.936Z,10.30
2023-04-18T04:50:23.556Z,11.60
2023-04-18T04:52:51.299Z,12.60
2023-04-18T04:55:19.091Z,12.50
2023-04-18T04:57:47.824Z,16.20
2023-04-18T05:00:20.766Z,11.70
2023-04-18T05:02:49.082Z,8.30
2023-04-18T05:05:16.784Z,13.10
2023-04-18T05:07:44.364Z,9.50
2023-04-18T05:10:11.981Z,10.20
2023-04-18T05:12:39.589Z,13.00
2023-04-18T05:15:08.014Z,14.80
2023-04-18T05:17:35.661Z,14.30
2023-04-18T05:20:04.190Z,12.70
2023-04-18T05:22:32.424Z,11.00
2023-04-18T05:25:00.127Z,13.60
2023-04-18T05:27:27.821Z,16.30
2023-04-18T05:29:55.865Z,20.20
2023-04-18T05:32:23.565Z,17.70
2023-04-18T05:34:51.243Z,15.80
2023-04-18T05:37:18.873Z,16.20
2023-04-18T05:39:46.652Z,18.90
2023-04-18T05:42:14.424Z,16.60
2023-04-18T05:44:42.108Z,19.10
2023-04-18T05:47:09.991Z,16.90
2023-04-18T05:49:37.693Z,19.60
2023-04-18T05:52:05.516Z,21.30
2023-04-18T05:54:33.224Z,15.40
2023-04-18T05:57:03.194Z,17.30
2023-04-18T05:59:32.049Z,18.50
2023-04-18T06:01:59.819Z,20.50
2023-04-18T06:04:27.797Z,18.70
2023-04-18T06:06:55.588Z,20.00
2023-04-18T06:09:23.192Z,16.90
2023-04-18T06:11:50.905Z,19.20
2023-04-18T06:14:18.612Z,18.10
2023-04-18T06:16:46.269Z,20.60
2023-04-18T06:19:13.854Z,17.80
2023-04-18T06:21:42.867Z,18.50
2023-04-18T06:24:10.549Z,13.40
2023-04-18T06:26:38.160Z,12.20
2023-04-18T06:29:05.946Z,12.80
2023-04-18T06:31:33.576Z,13.40
2023-04-18T06:34:01.168Z,11.20
2023-04-18T06:36:28.817Z,11.30
2023-04-18T06:38:56.430Z,14.30
2023-04-18T06:41:24.081Z,13.70
2023-04-18T06:44:02.768Z,10.80
2023-04-18T06:46:32.758Z,9.70
2023-04-18T06:49:00.481Z,11.40
2023-04-18T06:51:28.199Z,13.20
2023-04-18T06:53:55.899Z,11.60
2023-04-18T06:56:23.652Z,13.70
2023-04-18T06:58:52.863Z,13.90
2023-04-18T07:01:20.838Z,11.00
2023-04-18T07:03:48.758Z,10.90
2023-04-18T07:06:16.608Z,12.40
2023-04-18T07:08:44.205Z,10.50
2023-04-18T07:11:13.340Z,12.40
2023-04-18T07:13:40.994Z,10.00
2023-04-18T07:16:09.426Z,9.60
2023-04-18T07:18:38.573Z,8.50
2023-04-18T07:21:09.421Z,9.30
2023-04-18T07:23:37.274Z,12.80
2023-04-18T07:26:05.895Z,10.80
2023-04-18T07:28:33.724Z,11.10
2023-04-18T07:31:03.188Z,10.10
2023-04-18T07:33:33.963Z,10.80
2023-04-18T07:36:02.173Z,11.10
2023-04-18T07:38:29.796Z,10.00
2023-04-18T07:40:58.511Z,12.10
2023-04-18T07:43:26.340Z,10.10
2023-04-18T07:45:54.058Z,13.10
2023-04-18T07:48:22.738Z,11.60
2023-04-18T07:50:50.826Z,14.00
2023-04-18T07:53:18.491Z,9.70
2023-04-18T07:55:46.719Z,10.50
2023-04-18T07:58:14.666Z,11.80
2023-04-18T08:00:43.848Z,10.30
2023-04-18T08:03:12.872Z,10.60
2023-04-18T08:05:41.962Z,10.00
2023-04-18T08:08:10.760Z,10.00
2023-04-18T08:10:38.411Z,11.10
2023-04-18T08:13:06.312Z,8.90
2023-04-18T08:15:34.061Z,9.70
2023-04-18T08:18:01.848Z,9.80
2023-04-18T08:20:29.654Z,9.00
2023-04-18T08:23:06.838Z,8.30
2023-04-18T08:25:36.692Z,10.00
2023-04-18T08:28:04.720Z,9.00
2023-04-18T08:30:32.506Z,9.30
2023-04-18T08:33:00.923Z,9.90
2023-04-18T08:35:30.519Z,10.80
2023-04-18T08:37:58.117Z,10.30
2023-04-18T08:40:25.787Z,10.30
2023-04-18T08:42:54.108Z,10.50
2023-04-18T08:45:21.830Z,10.00
2023-04-18T08:47:49.509Z,10.70
2023-04-18T08:50:18.468Z,9.80
2023-04-18T08:52:48.847Z,8.70
2023-04-18T08:55:16.537Z,8.60
2023-04-18T08:57:44.211Z,14.50
2023-04-18T09:00:12.613Z,7.20
2023-04-18T09:02:45.015Z,12.30
2023-04-18T09:05:19.102Z,9.50
2023-04-18T09:07:47.771Z,10.20
2023-04-18T09:10:33.353Z,8.70
2023-04-18T09:13:03.530Z,6.40
2023-04-18T09:15:31.725Z,8.30
2023-04-18T09:18:02.302Z,7.90
2023-04-18T09:20:41.640Z,7.90
2023-04-18T09:23:11.328Z,7.10
2023-04-18T09:25:45.488Z,9.70
2023-04-18T09:28:30.239Z,8.00
2023-04-18T09:31:09.663Z,9.10
2023-04-18T09:33:37.763Z,7.90
2023-04-18T09:36:25.148Z,9.60
2023-04-18T09:38:56.200Z,8.80
2023-04-18T09:41:24.266Z,7.20
2023-04-18T09:44:09.716Z,9.30
2023-04-18T09:46:39.375Z,10.30
2023-04-18T09:49:09.632Z,6.80
2023-04-18T09:51:38.516Z,7.50
2023-04-18T09:54:06.179Z,7.90
2023-04-18T09:56:33.829Z,7.00
2023-04-18T09:59:08.843Z,5.70
2023-04-18T10:01:36.652Z,8.90
2023-04-18T10:04:06.747Z,7.80
2023-04-18T10:06:35.190Z,9.90
2023-04-18T10:09:03.399Z,6.80
2023-04-18T10:11:31.748Z,7.00
2023-04-18T10:14:02.708Z,6.70
2023-04-18T10:16:30.401Z,8.30
2023-04-18T10:18:58.442Z,6.90
2023-04-18T10:21:27.669Z,5.50
2023-04-18T10:23:55.503Z,6.40
2023-04-18T10:26:24.083Z,9.20
2023-04-18T10:28:58.320Z,6.40
2023-04-18T10:31:27.435Z,6.00
2023-04-18T10:36:28.652Z,9.00
2023-04-18T10:39:00.800Z,7.30
2023-04-18T10:41:32.110Z,7.00
2023-04-18T10:44:09.702Z,7.10
2023-04-18T10:46:38.875Z,5.90
2023-04-18T10:49:18.752Z,5.90
2023-04-18T10:51:47.200Z,6.90
2023-04-18T10:54:24.170Z,5.20
2023-04-18T10:56:56.648Z,8.40
2023-04-18T10:59:25.455Z,5.20
2023-04-18T11:01:58.209Z,6.60
2023-04-18T11:04:25.898Z,6.90
2023-04-18T11:06:58.382Z,7.40
2023-04-18T11:09:26.062Z,6.30
2023-04-18T11:12:07.532Z,6.50
2023-04-18T11:14:45.763Z,6.30
2023-04-18T11:17:21.949Z,5.60
2023-04-18T11:19:50.362Z,6.10
2023-04-18T11:22:18.371Z,7.50
2023-04-18T11:24:46.024Z,6.10
2023-04-18T11:27:13.988Z,5.20
2023-04-18T11:29:41.790Z,4.70
2023-04-18T11:32:09.596Z,6.90
2023-04-18T11:34:37.393Z,5.00
2023-04-18T11:37:08.513Z,5.10
2023-04-18T11:39:42.920Z,5.20
2023-04-18T11:42:10.614Z,5.70
2023-04-18T11:44:40.076Z,5.30
2023-04-18T11:47:29.086Z,6.40
2023-04-18T11:50:07.018Z,5.50
2023-04-18T11:52:35.574Z,5.70
2023-04-18T11:55:13.720Z,8.00
2023-04-18T11:57:42.014Z,4.30
2023-04-18T12:00:12.245Z,4.50
2023-04-18T12:02:44.172Z,4.80
2023-04-18T12:05:15.063Z,4.80
2023-04-18T12:07:44.967Z,5.90
2023-04-18T12:10:30.989Z,9.30
2023-04-18T12:12:59.064Z,5.30
2023-04-18T12:15:28.355Z,4.60
2023-04-18T12:18:00.693Z,4.50
2023-04-18T12:20:46.397Z,4.20
2023-04-18T12:23:33.843Z,6.70
2023-04-18T12:26:05.055Z,6.60
2023-04-18T12:28:33.499Z,6.70
2023-04-18T12:31:01.881Z,5.20
2023-04-18T12:33:30.532Z,4.20
2023-04-18T12:35:58.285Z,6.50
2023-04-18T12:38:25.958Z,5.00
2023-04-18T12:40:53.576Z,4.80
2023-04-18T12:43:21.209Z,4.80
2023-04-18T12:45:49.681Z,6.00
2023-04-18T12:48:17.405Z,4.30
2023-04-18T12:50:45.004Z,5.80
2023-04-18T12:53:12.845Z,4.70
2023-04-18T12:55:40.789Z,3.40
2023-04-18T12:58:08.540Z,4.50
2023-04-18T13:00:36.240Z,4.60
2023-04-18T13:03:04.769Z,5.60
2023-04-18T13:05:34.174Z,6.30
2023-04-18T13:10:32.697Z,5.20
2023-04-18T13:13:00.516Z,5.30
2023-04-18T13:15:28.439Z,6.40
2023-04-18T13:17:57.068Z,5.10
2023-04-18T13:20:24.814Z,4.10
2023-04-18T13:22:52.492Z,3.60
2023-04-18T13:25:20.344Z,4.40
2023-04-18T13:27:50.156Z,4.10
2023-04-18T13:30:17.927Z,4.30
2023-04-18T13:32:46.271Z,5.20
2023-04-18T13:35:14.023Z,5.00
2023-04-18T13:37:41.897Z,4.90
2023-04-18T13:40:10.129Z,4.70
2023-04-18T13:42:38.416Z,6.60
2023-04-18T13:45:07.444Z,6.60
2023-04-18T13:47:35.866Z,8.80
2023-04-18T13:50:04.089Z,50.30
2023-04-18T13:52:31.759Z,10.30
2023-04-18T13:54:59.396Z,8.00
2023-04-18T13:57:28.445Z,6.00
2023-04-18T13:59:56.084Z,5.60
2023-04-18T14:02:23.908Z,5.80
2023-04-18T14:04:52.721Z,8.40
2023-04-18T14:07:20.406Z,7.30
2023-04-18T14:09:48.242Z,6.80
2023-04-18T14:12:16.061Z,5.10
2023-04-18T14:14:43.686Z,4.80
2023-04-18T14:17:11.419Z,7.30
2023-04-18T14:19:39.177Z,5.40
2023-04-18T14:22:07.831Z,8.70
2023-04-18T14:24:36.492Z,7.20
2023-04-18T14:27:04.189Z,6.30
2023-04-18T14:29:31.784Z,6.20
2023-04-18T14:31:59.411Z,6.50
2023-04-18T14:34:27.008Z,7.40
2023-04-18T14:36:54.693Z,7.60
2023-04-18T14:39:22.393Z,6.60
2023-04-18T14:41:50.052Z,12.60
2023-04-18T14:44:17.630Z,7.40
2023-04-18T14:46:45.318Z,10.50
2023-04-18T14:49:13.119Z,12.80
2023-04-18T14:51:41.127Z,11.00
2023-04-18T14:54:08.713Z,6.80
2023-04-18T14:56:36.347Z,7.50
2023-04-18T14:59:03.987Z,6.30
2023-04-18T15:01:31.669Z,7.60
2023-04-18T15:03:59.772Z,9.50
2023-04-18T15:06:28.433Z,10.30
2023-04-18T15:08:56.712Z,8.70
2023-04-18T15:11:24.453Z,8.60
2023-04-18T15:13:52.080Z,11.50
2023-04-18T15:16:19.780Z,9.90
2023-04-18T15:18:47.494Z,6.30
2023-04-18T15:21:15.104Z,9.90
2023-04-18T15:23:42.851Z,8.70
2023-04-18T15:26:10.743Z,10.80
2023-04-18T15:28:38.349Z,8.70
2023-04-18T15:31:06.096Z,9.40
2023-04-18T15:33:33.718Z,7.90
2023-04-18T15:36:01.308Z,8.90
2023-04-18T15:38:30.492Z,9.70
2023-04-18T15:40:59.972Z,12.10
2023-04-18T15:43:27.582Z,10.90
2023-04-18T15:45:55.224Z,9.50
2023-04-18T15:48:22.854Z,14.60
2023-04-18T15:50:51.198Z,10.20
2023-04-18T15:53:18.917Z,12.10
2023-04-18T15:55:46.919Z,10.30
2023-04-18T15:58:14.651Z,8.50
2023-04-18T16:00:42.294Z,11.10
2023-04-18T16:03:10.506Z,10.90
2023-04-18T16:05:38.343Z,9.40
2023-04-18T16:08:06.332Z,8.90
2023-04-18T16:10:33.937Z,9.80
2023-04-18T16:13:02.442Z,8.60
2023-04-18T16:15:34.864Z,12.20
2023-04-18T16:18:02.578Z,9.80
2023-04-18T16:20:30.276Z,12.20
2023-04-18T16:22:57.870Z,12.20
2023-04-18T16:25:25.755Z,12.80
2023-04-18T16:27:53.759Z,10.60
2023-04-18T16:30:21.492Z,13.00
2023-04-18T16:32:49.154Z,9.70
2023-04-18T16:35:16.840Z,13.30
2023-04-18T16:37:44.477Z,12.40
2023-04-18T16:40:12.294Z,11.50
2023-04-18T16:42:41.200Z,10.70
2023-04-18T16:45:08.994Z,9.90
2023-04-18T16:47:36.712Z,9.10
2023-04-18T16:50:05.210Z,11.70
2023-04-18T16:52:32.917Z,15.60
2023-04-18T16:55:00.588Z,11.10
2023-04-18T16:57:28.221Z,10.00
2023-04-18T16:59:55.900Z,12.20
2023-04-18T17:02:24.023Z,12.20
2023-04-18T17:04:51.916Z,11.40
2023-04-18T17:07:19.582Z,11.30
2023-04-18T17:09:47.240Z,10.40
2023-04-18T17:12:15.045Z,10.00
2023-04-18T17:14:42.645Z,10.00
2023-04-18T17:17:10.579Z,10.70
2023-04-18T17:19:39.187Z,10.90
2023-04-18T17:22:07.344Z,11.40
2023-04-18T17:24:35.196Z,15.00
2023-04-18T17:27:03.046Z,10.00
2023-04-18T17:29:30.957Z,14.20
2023-04-18T17:31:58.989Z,11.50
2023-04-18T17:34:26.984Z,10.90
2023-04-18T17:36:54.925Z,11.60
2023-04-18T17:39:22.875Z,11.20
2023-04-18T17:41:50.753Z,11.80
2023-04-18T17:44:18.386Z,11.00
2023-04-18T17:46:47.377Z,9.80
2023-04-18T17:49:16.840Z,10.20
2023-04-18T17:51:44.704Z,8.40
2023-04-18T17:54:13.488Z,8.80
2023-04-18T17:56:41.376Z,10.90
2023-04-18T17:59:09.862Z,10.40
2023-04-18T18:01:37.901Z,11.00
2023-04-18T18:04:05.889Z,12.90
2023-04-18T18:06:34.679Z,12.10
2023-04-18T18:09:02.940Z,12.40
2023-04-18T18:11:30.586Z,13.20
2023-04-18T18:13:58.264Z,12.40
2023-04-18T18:16:26.294Z,14.00
2023-04-18T18:18:54.074Z,14.70
2023-04-18T18:21:21.869Z,12.70
2023-04-18T18:23:49.781Z,16.20
2023-04-18T18:26:17.427Z,15.70
2023-04-18T18:28:45.152Z,20.40
2023-04-18T18:31:13.103Z,17.20
2023-04-18T18:33:41.227Z,15.60
2023-04-18T18:36:08.839Z,16.20
2023-04-18T18:38:36.860Z,22.20
2023-04-18T18:41:05.712Z,25.40
2023-04-18T18:43:33.629Z,21.60
2023-04-18T18:46:01.272Z,15.50
2023-04-18T18:48:29.260Z,13.40
2023-04-18T18:50:58.544Z,13.60
2023-04-18T18:53:26.183Z,12.00
2023-04-18T18:55:53.812Z,12.60
2023-04-18T18:58:21.747Z,10.80
2023-04-18T19:00:51.220Z,15.00
2023-04-18T19:03:21.249Z,12.80
2023-04-18T19:05:49.368Z,10.60
2023-04-18T19:08:17.283Z,15.70
2023-04-18T19:10:44.922Z,14.60
2023-04-18T19:13:12.531Z,16.90
2023-04-18T19:15:40.212Z,26.60
2023-04-18T19:18:07.933Z,33.30
2023-04-18T19:20:35.671Z,38.50
2023-04-18T19:23:03.299Z,21.60
2023-04-18T19:25:31.288Z,22.50
2023-04-18T19:27:58.937Z,19.90
2023-04-18T19:30:26.552Z,20.90
2023-04-18T19:32:54.208Z,21.70
2023-04-18T19:35:22.094Z,22.80
2023-04-18T19:37:49.918Z,20.00
2023-04-18T19:40:17.799Z,21.30
2023-04-18T19:42:46.212Z,19.00
2023-04-18T19:45:15.210Z,18.30
2023-04-18T19:47:44.431Z,20.10
2023-04-18T19:50:12.197Z,21.30
2023-04-18T19:52:39.875Z,24.60
2023-04-18T19:55:07.965Z,22.30
2023-04-18T19:57:39.635Z,22.70
2023-04-18T20:00:09.358Z,20.20
2023-04-18T20:02:37.329Z,17.70
2023-04-18T20:05:06.347Z,18.20
2023-04-18T20:07:34.811Z,19.80
2023-04-18T20:10:02.471Z,20.20
2023-04-18T20:12:30.161Z,21.60
2023-04-18T20:14:58.981Z,21.30
2023-04-18T20:17:27.734Z,19.20
2023-04-18T20:19:57.333Z,20.10
2023-04-18T20:22:26.726Z,19.30
2023-04-18T20:24:57.272Z,21.00
2023-04-18T20:27:25.006Z,17.00
2023-04-18T20:29:52.657Z,20.20
2023-04-18T20:32:20.675Z,21.10
2023-04-18T20:34:48.531Z,20.50
2023-04-18T20:37:19.830Z,26.60
2023-04-18T20:39:47.713Z,25.50
2023-04-18T20:42:15.857Z,24.60
2023-04-18T20:44:44.793Z,26.20
2023-04-18T20:47:15.148Z,28.90
2023-04-18T20:49:43.279Z,21.10
2023-04-18T20:52:10.925Z,27.50
2023-04-18T20:54:38.575Z,26.90
2023-04-18T20:57:06.301Z,28.30
2023-04-18T20:59:33.903Z,26.20
2023-04-18T21:02:01.714Z,20.90
2023-04-18T21:04:29.610Z,21.70
2023-04-18T21:06:57.932Z,19.90
2023-04-18T21:09:25.707Z,20.10
2023-04-18T21:11:53.323Z,20.40
2023-04-18T21:14:20.971Z,25.30
2023-04-18T21:16:48.560Z,19.20
2023-04-18T21:19:16.415Z,17.80
2023-04-18T21:21:44.138Z,20.10
2023-04-18T21:24:11.852Z,21.00
2023-04-18T21:26:39.494Z,19.50
2023-04-18T21:29:07.590Z,20.50
2023-04-18T21:31:35.511Z,17.80
2023-04-18T21:34:04.627Z,19.40
2023-04-18T21:36:32.682Z,19.80
2023-04-18T21:39:00.979Z,18.20
2023-04-18T21:41:28.721Z,19.20
2023-04-18T21:43:56.398Z,17.60
2023-04-18T21:46:24.226Z,17.30
2023-04-18T21:48:52.041Z,16.30
2023-04-18T21:51:19.661Z,20.00
2023-04-18T21:53:47.338Z,18.00
2023-04-18T21:56:14.987Z,16.60
2023-04-18T21:58:42.625Z,18.70
2023-04-18T22:01:10.339Z,18.60
2023-04-18T22:03:38.178Z,22.70
2023-04-18T22:06:06.227Z,21.30
2023-04-18T22:08:33.889Z,21.50
2023-04-18T22:11:01.670Z,18.90
2023-04-18T22:13:35.683Z,20.90
2023-04-18T22:16:03.759Z,22.70
2023-04-18T22:18:34.576Z,24.00
2023-04-18T22:21:03.430Z,25.40
2023-04-18T22:23:31.295Z,23.50
2023-04-18T22:25:58.947Z,21.60
2023-04-18T22:28:28.179Z,19.60
2023-04-18T22:30:56.066Z,24.10
2023-04-18T22:33:24.381Z,18.60
2023-04-18T22:35:52.336Z,20.00
2023-04-18T22:38:19.948Z,24.60
2023-04-18T22:40:47.744Z,20.20
2023-04-18T22:43:15.350Z,22.10
2023-04-18T22:45:42.981Z,21.00
2023-04-18T22:48:13.282Z,20.30
2023-04-18T22:50:42.930Z,20.50
2023-04-18T22:53:11.150Z,25.60
2023-04-18T22:55:40.482Z,21.10
2023-04-18T22:58:08.796Z,24.10
2023-04-18T23:00:37.009Z,18.40
2023-04-18T23:03:04.864Z,21.50
2023-04-18T23:05:33.373Z,21.60
2023-04-18T23:08:01.050Z,20.50
2023-04-18T23:10:28.730Z,23.00
2023-04-18T23:12:56.727Z,23.20
2023-04-18T23:15:25.352Z,23.90
2023-04-18T23:17:53.391Z,18.00
2023-04-18T23:20:21.424Z,19.20
2023-04-18T23:22:51.572Z,24.00
2023-04-18T23:25:20.064Z,21.00
2023-04-18T23:27:48.023Z,20.80
2023-04-18T23:30:16.071Z,18.80
2023-04-18T23:32:44.048Z,22.00
2023-04-18T23:35:11.907Z,19.00
2023-04-18T23:37:39.577Z,23.60
2023-04-18T23:40:08.206Z,21.60
2023-04-18T23:42:35.984Z,17.70
2023-04-18T23:45:04.102Z,19.30
2023-04-18T23:47:31.734Z,17.00
2023-04-18T23:49:59.656Z,17.90
2023-04-18T23:52:27.280Z,16.30
2023-04-18T23:54:55.554Z,19.70
2023-04-18T23:57:23.180Z,20.20
2023-04-18T23:59:50.793Z,19.80
